Time;durP1;ratioP1;P1;durP2;ratioP2;P2;SDS_P1;SDS_P2;PMS_P1;PMS_P2;Temp;Humidity;BMP_temperature;BMP_pressure;BME280_temperature;BME280_humidity;BME280_pressure;Samples;Min_cycle;Max_cycle;Signal;HPM_P1;HPM_P2
2023/08/18 00:00:42;;;;;;;8.07;4.15;;;;;;;;;;5099676;28;20413;-59
2023/08/18 00:03:09;;;;;;;7.32;4.03;;;;;;;;;;5093509;28;20143;-58
2023/08/18 00:05:35;;;;;;;6.13;4.22;;;;;;;;;;5092052;28;20436;-58
2023/08/18 00:08:01;;;;;;;6.97;3.78;;;;;;;;;;5095292;28;20044;-58
2023/08/18 00:10:27;;;;;;;5.85;4.50;;;;;;;;;;5088039;28;20047;-58
2023/08/18 00:12:53;;;;;;;6.70;4.25;;;;;;;;;;5089240;28;20532;-58
2023/08/18 00:15:20;;;;;;;6.63;3.65;;;;;;;;;;5100820;28;20447;-58
2023/08/18 00:17:46;;;;;;;7.20;3.75;;;;;;;;;;5088819;28;20119;-58
2023/08/18 00:20:12;;;;;;;6.82;3.60;;;;;;;;;;5092549;28;20051;-58
2023/08/18 00:22:39;;;;;;;5.38;3.55;;;;;;;;;;5081987;28;20075;-58
2023/08/18 00:25:05;;;;;;;5.55;3.38;;;;;;;;;;5100382;28;20035;-58
2023/08/18 00:27:31;;;;;;;6.35;3.17;;;;;;;;;;5088121;28;20044;-58
2023/08/18 00:29:58;;;;;;;4.40;3.25;;;;;;;;;;5085482;28;20052;-58
2023/08/18 00:32:24;;;;;;;7.78;3.13;;;;;;;;;;5085600;28;20111;-58
2023/08/18 00:34:50;;;;;;;6.18;3.55;;;;;;;;;;5085312;28;20040;-58
2023/08/18 00:37:16;;;;;;;5.60;3.10;;;;;;;;;;5086832;28;20044;-58
2023/08/18 00:39:42;;;;;;;4.32;2.92;;;;;;;;;;5083755;28;20044;-58
2023/08/18 00:42:08;;;;;;;5.25;2.65;;;;;;;;;;5082528;28;20032;-58
2023/08/18 00:44:35;;;;;;;5.13;2.90;;;;;;;;;;5083590;28;20051;-58
2023/08/18 00:47:01;;;;;;;6.30;2.80;;;;;;;;;;5082795;28;20525;-58
2023/08/18 00:49:28;;;;;;;4.78;2.85;;;;;;;;;;5081258;28;20052;-59
2023/08/18 00:51:54;;;;;;;5.30;3.28;;;;;;;;;;5091151;28;20218;-59
2023/08/18 00:54:20;;;;;;;4.93;2.78;;;;;;;;;;5092291;28;20047;-58
2023/08/18 00:56:47;;;;;;;7.85;3.20;;;;;;;;;;5088820;28;20095;-58
2023/08/18 00:59:14;;;;;;;5.82;3.13;;;;;;;;;;5089646;28;20362;-58
2023/08/18 01:01:41;;;;;;;5.63;2.90;;;;;;;;;;5096294;28;20051;-58
2023/08/18 01:04:07;;;;;;;11.73;3.10;;;;;;;;;;5090547;28;20046;-58
2023/08/18 01:06:34;;;;;;;5.03;2.83;;;;;;;;;;5086939;28;20047;-58
2023/08/18 01:09:00;;;;;;;8.55;2.65;;;;;;;;;;5094446;28;20053;-58
2023/08/18 01:11:26;;;;;;;6.55;2.85;;;;;;;;;;5086529;28;20044;-58
2023/08/18 01:14:04;;;;;;;5.05;2.88;;;;;;;;;;5088975;28;20078;-58
2023/08/18 01:16:30;;;;;;;10.98;3.45;;;;;;;;;;5088001;28;20032;-58
2023/08/18 01:18:56;;;;;;;5.03;2.95;;;;;;;;;;5091005;28;20113;-59
2023/08/18 01:21:24;;;;;;;8.02;3.40;;;;;;;;;;5091145;28;20085;-59
2023/08/18 01:23:50;;;;;;;4.75;2.78;;;;;;;;;;5082807;28;20075;-58
2023/08/18 01:26:16;;;;;;;4.70;3.15;;;;;;;;;;5092133;28;20060;-58
2023/08/18 01:28:43;;;;;;;4.88;3.10;;;;;;;;;;5091845;28;20135;-58
2023/08/18 01:31:18;;;;;;;4.97;2.90;;;;;;;;;;5084145;28;20085;-58
2023/08/18 01:33:47;;;;;;;6.20;3.17;;;;;;;;;;5090892;28;20043;-58
2023/08/18 01:36:16;;;;;;;4.75;3.05;;;;;;;;;;5093118;28;20059;-59
2023/08/18 01:38:43;;;;;;;6.70;3.00;;;;;;;;;;5090455;28;20416;-58
2023/08/18 01:41:10;;;;;;;5.47;2.95;;;;;;;;;;5092454;28;20035;-58
2023/08/18 01:43:37;;;;;;;4.47;2.88;;;;;;;;;;5090298;28;20047;-58
2023/08/18 01:46:03;;;;;;;5.05;3.03;;;;;;;;;;5084569;28;20075;-58
2023/08/18 01:48:29;;;;;;;5.75;3.05;;;;;;;;;;5087919;28;20118;-59
2023/08/18 01:50:55;;;;;;;6.70;3.22;;;;;;;;;;5092103;28;20048;-58
2023/08/18 01:53:22;;;;;;;6.60;3.08;;;;;;;;;;5086636;28;20044;-58
2023/08/18 01:55:48;;;;;;;6.78;3.17;;;;;;;;;;5089660;28;20036;-58
2023/08/18 01:58:14;;;;;;;5.65;3.30;;;;;;;;;;5092116;28;20040;-58
2023/08/18 02:00:40;;;;;;;7.65;3.70;;;;;;;;;;5088180;28;20348;-58
2023/08/18 02:03:08;;;;;;;8.30;3.70;;;;;;;;;;5093979;28;20048;-58
2023/08/18 02:05:37;;;;;;;7.60;3.33;;;;;;;;;;5088514;28;20044;-58
2023/08/18 02:08:04;;;;;;;5.43;2.67;;;;;;;;;;5089298;28;20060;-58
2023/08/18 02:10:30;;;;;;;7.30;3.42;;;;;;;;;;5089484;28;20055;-59
2023/08/18 02:12:57;;;;;;;5.75;3.38;;;;;;;;;;5091934;28;20529;-58
2023/08/18 02:15:23;;;;;;;6.15;3.28;;;;;;;;;;5087536;28;20453;-58
2023/08/18 02:17:49;;;;;;;8.10;4.03;;;;;;;;;;5087822;28;21726;-58
2023/08/18 02:20:15;;;;;;;5.65;3.50;;;;;;;;;;5084818;28;20036;-58
2023/08/18 02:22:42;;;;;;;6.63;3.50;;;;;;;;;;5089246;28;20040;-59
2023/08/18 02:25:08;;;;;;;6.72;3.90;;;;;;;;;;5091046;28;20036;-58
2023/08/18 02:27:34;;;;;;;6.07;3.40;;;;;;;;;;5097145;28;20031;-58
2023/08/18 02:30:00;;;;;;;7.13;3.72;;;;;;;;;;5090262;28;20043;-58
2023/08/18 02:32:26;;;;;;;7.13;3.72;;;;;;;;;;5087713;28;20040;-58
2023/08/18 02:34:53;;;;;;;6.57;3.78;;;;;;;;;;5092918;28;20059;-58
2023/08/18 02:37:19;;;;;;;5.82;3.38;;;;;;;;;;5088942;28;20088;-58
2023/08/18 02:39:45;;;;;;;6.20;3.80;;;;;;;;;;5086921;28;20043;-59
2023/08/18 02:42:14;;;;;;;6.35;3.88;;;;;;;;;;5083749;28;20036;-58
2023/08/18 02:44:40;;;;;;;6.45;3.67;;;;;;;;;;5084063;28;20044;-58
2023/08/18 02:47:07;;;;;;;8.13;3.75;;;;;;;;;;5084594;28;20060;-58
2023/08/18 02:49:33;;;;;;;6.60;3.80;;;;;;;;;;5083920;28;20698;-58
2023/08/18 02:52:00;;;;;;;6.60;3.55;;;;;;;;;;5084665;28;20494;-58
2023/08/18 02:54:26;;;;;;;5.82;3.80;;;;;;;;;;5083800;28;20055;-58
2023/08/18 02:56:52;;;;;;;6.35;3.78;;;;;;;;;;5085348;28;20040;-58
2023/08/18 02:59:19;;;;;;;7.75;4.35;;;;;;;;;;5085907;28;20079;-58
2023/08/18 03:01:45;;;;;;;5.18;3.65;;;;;;;;;;5090830;28;20447;-58
2023/08/18 03:04:14;;;;;;;7.78;4.22;;;;;;;;;;5092345;28;20082;-58
2023/08/18 03:06:40;;;;;;;6.90;4.07;;;;;;;;;;5094973;28;20059;-59
2023/08/18 03:09:07;;;;;;;7.57;4.18;;;;;;;;;;5091847;28;20548;-58
2023/08/18 03:11:33;;;;;;;6.60;3.83;;;;;;;;;;5091875;28;20122;-58
2023/08/18 03:13:59;;;;;;;8.80;4.25;;;;;;;;;;5101862;28;20081;-58
2023/08/18 03:16:26;;;;;;;6.20;3.63;;;;;;;;;;5091805;28;20114;-58
2023/08/18 03:18:52;;;;;;;7.28;4.03;;;;;;;;;;5090000;28;20108;-58
2023/08/18 03:21:18;;;;;;;6.30;4.18;;;;;;;;;;5091507;28;20475;-58
2023/08/18 03:23:44;;;;;;;5.55;3.80;;;;;;;;;;5086887;28;20118;-58
2023/08/18 03:26:10;;;;;;;6.30;3.70;;;;;;;;;;5089318;28;20104;-58
2023/08/18 03:28:37;;;;;;;9.27;4.00;;;;;;;;;;5097505;28;20146;-58
2023/08/18 03:31:04;;;;;;;6.60;4.10;;;;;;;;;;5090575;28;20085;-58
2023/08/18 03:33:31;;;;;;;6.32;3.85;;;;;;;;;;5090442;28;20043;-57
2023/08/18 03:35:58;;;;;;;5.57;3.65;;;;;;;;;;5087484;28;20036;-58
2023/08/18 03:38:24;;;;;;;15.35;5.50;;;;;;;;;;5096237;28;20044;-59
2023/08/18 03:40:56;;;;;;;6.57;4.20;;;;;;;;;;5088948;28;20036;-58
2023/08/18 03:43:22;;;;;;;9.02;4.10;;;;;;;;;;5099271;28;20180;-58
2023/08/18 03:45:49;;;;;;;5.72;4.10;;;;;;;;;;5091697;28;20035;-58
2023/08/18 03:48:15;;;;;;;8.18;4.18;;;;;;;;;;5090548;28;20040;-59
2023/08/18 03:50:41;;;;;;;9.52;4.65;;;;;;;;;;5091265;28;20262;-58
2023/08/18 03:53:07;;;;;;;8.07;4.03;;;;;;;;;;5087411;28;20648;-58
2023/08/18 03:55:34;;;;;;;7.47;4.50;;;;;;;;;;5091655;28;20043;-58
2023/08/18 03:58:00;;;;;;;7.43;4.07;;;;;;;;;;5089894;28;20082;-58
2023/08/18 04:00:26;;;;;;;7.63;4.63;;;;;;;;;;5087452;28;20040;-58
2023/08/18 04:02:52;;;;;;;10.82;4.97;;;;;;;;;;5096310;28;20036;-58
2023/08/18 04:05:18;;;;;;;9.98;5.15;;;;;;;;;;5096284;28;20040;-58
2023/08/18 04:07:44;;;;;;;7.32;4.55;;;;;;;;;;5089904;28;20048;-58
2023/08/18 04:10:11;;;;;;;8.00;4.60;;;;;;;;;;5087270;28;20058;-58
2023/08/18 04:12:37;;;;;;;9.40;4.28;;;;;;;;;;5091566;28;20048;-59
2023/08/18 04:15:03;;;;;;;7.95;4.70;;;;;;;;;;5094826;28;20154;-59
2023/08/18 04:17:30;;;;;;;6.97;4.63;;;;;;;;;;5089348;28;20442;-58
2023/08/18 04:19:56;;;;;;;9.57;5.20;;;;;;;;;;5087776;28;20127;-58
2023/08/18 04:22:22;;;;;;;10.90;5.15;;;;;;;;;;5085796;28;20617;-58
2023/08/18 04:24:48;;;;;;;10.30;5.55;;;;;;;;;;5089886;28;20429;-58
2023/08/18 04:27:14;;;;;;;8.80;5.63;;;;;;;;;;5090346;28;20165;-59
2023/08/18 04:29:41;;;;;;;9.43;5.00;;;;;;;;;;5093449;28;20039;-58
2023/08/18 04:32:07;;;;;;;8.68;5.15;;;;;;;;;;5105848;28;20091;-58
2023/08/18 04:34:33;;;;;;;11.18;5.60;;;;;;;;;;5105542;28;20036;-58
2023/08/18 04:36:59;;;;;;;8.60;5.45;;;;;;;;;;5099746;28;20451;-58
2023/08/18 04:39:25;;;;;;;11.68;5.80;;;;;;;;;;5098986;28;21353;-58
2023/08/18 04:41:52;;;;;;;12.75;6.15;;;;;;;;;;5095139;28;20046;-58
2023/08/18 04:44:18;;;;;;;8.52;5.60;;;;;;;;;;5096496;28;20040;-58
2023/08/18 04:46:44;;;;;;;8.65;5.30;;;;;;;;;;5092065;28;20032;-65
2023/08/18 04:49:10;;;;;;;10.20;5.60;;;;;;;;;;5091696;28;20090;-58
2023/08/18 04:51:36;;;;;;;9.57;5.82;;;;;;;;;;5093996;28;20183;-58
2023/08/18 04:54:03;;;;;;;14.38;6.47;;;;;;;;;;5110117;28;20050;-58
2023/08/18 04:56:30;;;;;;;12.00;6.03;;;;;;;;;;5099669;28;20028;-59
2023/08/18 04:58:56;;;;;;;12.52;6.32;;;;;;;;;;5100670;28;20046;-58
2023/08/18 05:01:22;;;;;;;10.15;6.13;;;;;;;;;;5107164;28;21404;-58
2023/08/18 05:03:48;;;;;;;10.57;6.00;;;;;;;;;;5093922;28;20457;-59
2023/08/18 05:06:14;;;;;;;11.80;6.57;;;;;;;;;;5095926;28;20040;-60
2023/08/18 05:08:41;;;;;;;8.98;5.78;;;;;;;;;;5109401;28;20050;-59
2023/08/18 05:11:09;;;;;;;11.25;6.22;;;;;;;;;;5100380;28;20043;-60
2023/08/18 05:13:36;;;;;;;8.70;5.95;;;;;;;;;;5108665;28;20075;-60
2023/08/18 05:16:03;;;;;;;11.63;5.95;;;;;;;;;;5094871;28;20483;-60
2023/08/18 05:18:29;;;;;;;9.73;5.57;;;;;;;;;;5094831;28;20044;-64
2023/08/18 05:20:56;;;;;;;13.05;6.00;;;;;;;;;;5090394;28;20475;-59
2023/08/18 05:23:23;;;;;;;11.15;5.68;;;;;;;;;;5089762;28;20092;-59
2023/08/18 05:25:53;;;;;;;11.55;5.47;;;;;;;;;;5087737;28;20068;-59
2023/08/18 05:28:20;;;;;;;8.80;5.80;;;;;;;;;;5081783;28;20040;-59
2023/08/18 05:30:47;;;;;;;12.38;6.07;;;;;;;;;;5093698;28;20043;-59
2023/08/18 05:33:13;;;;;;;9.13;5.38;;;;;;;;;;5093885;28;20036;-59
2023/08/18 05:35:39;;;;;;;9.98;5.75;;;;;;;;;;5090474;28;20060;-60
2023/08/18 05:38:12;;;;;;;9.00;5.57;;;;;;;;;;5087761;28;20089;-59
2023/08/18 05:40:42;;;;;;;9.93;5.85;;;;;;;;;;5089253;28;20515;-58
2023/08/18 05:43:09;;;;;;;8.88;6.57;;;;;;;;;;5090141;28;20119;-59
2023/08/18 05:45:36;;;;;;;11.07;5.60;;;;;;;;;;5090377;28;20036;-59
2023/08/18 05:48:04;;;;;;;9.68;5.40;;;;;;;;;;5083946;28;20048;-59
2023/08/18 05:50:30;;;;;;;7.72;5.45;;;;;;;;;;5084800;28;20060;-59
2023/08/18 05:52:56;;;;;;;8.10;6.03;;;;;;;;;;5092009;28;20070;-59
2023/08/18 05:55:23;;;;;;;8.73;6.15;;;;;;;;;;5077155;28;20047;-66
2023/08/18 05:57:49;;;;;;;9.43;5.90;;;;;;;;;;5086082;28;20032;-58
2023/08/18 06:00:15;;;;;;;13.70;6.18;;;;;;;;;;5087714;28;20048;-60
2023/08/18 06:02:42;;;;;;;10.23;6.20;;;;;;;;;;5085471;28;20047;-60
2023/08/18 06:05:12;;;;;;;9.90;5.88;;;;;;;;;;5090805;28;20078;-60
2023/08/18 06:07:41;;;;;;;12.40;6.20;;;;;;;;;;5087145;28;20044;-60
2023/08/18 06:10:09;;;;;;;11.60;6.68;;;;;;;;;;5082967;28;20392;-61
2023/08/18 06:12:35;;;;;;;10.93;6.22;;;;;;;;;;5088350;28;20048;-60
2023/08/18 06:15:02;;;;;;;14.02;6.00;;;;;;;;;;5087171;28;20044;-61
2023/08/18 06:17:28;;;;;;;10.55;6.15;;;;;;;;;;5088787;28;20117;-60
2023/08/18 06:19:54;;;;;;;10.50;6.03;;;;;;;;;;5091705;28;20127;-60
2023/08/18 06:22:20;;;;;;;10.95;6.55;;;;;;;;;;5087810;28;20036;-60
2023/08/18 06:24:47;;;;;;;11.13;6.55;;;;;;;;;;5089274;28;20060;-61
2023/08/18 06:27:13;;;;;;;10.73;6.15;;;;;;;;;;5090486;28;20040;-60
2023/08/18 06:29:39;;;;;;;10.55;6.05;;;;;;;;;;5087171;28;20036;-60
2023/08/18 06:32:05;;;;;;;9.85;6.38;;;;;;;;;;5088960;28;20044;-60
2023/08/18 06:34:32;;;;;;;11.15;6.75;;;;;;;;;;5096483;28;20044;-60
2023/08/18 06:36:58;;;;;;;11.15;7.32;;;;;;;;;;5092517;28;20097;-60
2023/08/18 06:39:24;;;;;;;11.82;7.43;;;;;;;;;;5090461;28;20126;-60
2023/08/18 06:41:50;;;;;;;9.73;6.50;;;;;;;;;;5091946;28;20063;-60
2023/08/18 06:44:16;;;;;;;9.73;6.00;;;;;;;;;;5090077;28;20100;-60
2023/08/18 06:46:42;;;;;;;9.07;6.25;;;;;;;;;;5092009;28;20452;-60
2023/08/18 06:49:09;;;;;;;9.38;6.53;;;;;;;;;;5088029;28;20568;-60
2023/08/18 06:51:35;;;;;;;10.65;6.65;;;;;;;;;;5088333;28;20047;-60
2023/08/18 06:54:01;;;;;;;12.60;6.65;;;;;;;;;;5088181;28;20052;-60
2023/08/18 06:56:28;;;;;;;10.82;6.72;;;;;;;;;;5085721;28;20055;-60
2023/08/18 06:58:54;;;;;;;9.75;6.85;;;;;;;;;;5089704;28;20127;-60
2023/08/18 07:01:20;;;;;;;10.57;6.70;;;;;;;;;;5089125;28;20397;-60
2023/08/18 07:03:48;;;;;;;12.57;7.15;;;;;;;;;;5085876;28;20068;-60
2023/08/18 07:06:14;;;;;;;9.98;6.43;;;;;;;;;;5086565;28;20048;-60
2023/08/18 07:08:40;;;;;;;10.88;6.18;;;;;;;;;;5090342;28;20536;-60
2023/08/18 07:11:07;;;;;;;12.77;6.72;;;;;;;;;;5092027;28;20384;-60
2023/08/18 07:13:34;;;;;;;10.45;6.75;;;;;;;;;;5093120;28;20376;-60
2023/08/18 07:16:00;;;;;;;11.38;6.93;;;;;;;;;;5092447;28;20043;-60
2023/08/18 07:18:26;;;;;;;11.50;7.65;;;;;;;;;;5090431;28;20171;-60
2023/08/18 07:20:52;;;;;;;13.88;7.32;;;;;;;;;;5092333;28;20155;-60
2023/08/18 07:23:18;;;;;;;11.75;7.43;;;;;;;;;;5093905;28;20568;-60
2023/08/18 07:25:45;;;;;;;16.88;7.85;;;;;;;;;;5090163;28;20048;-60
2023/08/18 07:28:11;;;;;;;11.35;6.93;;;;;;;;;;5091148;28;20059;-60
2023/08/18 07:30:37;;;;;;;11.25;7.18;;;;;;;;;;5086189;28;20051;-60
2023/08/18 07:33:03;;;;;;;11.00;7.28;;;;;;;;;;5092470;28;20497;-60
2023/08/18 07:35:33;;;;;;;11.73;7.05;;;;;;;;;;5093689;28;20044;-60
2023/08/18 07:37:59;;;;;;;13.55;6.72;;;;;;;;;;5092947;28;20067;-60
2023/08/18 07:40:27;;;;;;;13.43;7.40;;;;;;;;;;5092839;28;20455;-60
2023/08/18 07:42:53;;;;;;;14.10;7.65;;;;;;;;;;5090225;28;20445;-60
2023/08/18 07:45:19;;;;;;;13.75;7.18;;;;;;;;;;5086452;28;20052;-60
2023/08/18 07:47:46;;;;;;;10.48;6.93;;;;;;;;;;5086109;28;20040;-60
2023/08/18 07:50:13;;;;;;;12.73;7.78;;;;;;;;;;5087006;28;20130;-60
2023/08/18 07:52:40;;;;;;;12.38;7.28;;;;;;;;;;5093241;28;20097;-60
2023/08/18 07:55:07;;;;;;;15.50;7.47;;;;;;;;;;5091588;28;20165;-60
2023/08/18 07:57:34;;;;;;;12.70;6.95;;;;;;;;;;5089423;28;20044;-60
2023/08/18 08:00:07;;;;;;;12.10;7.03;;;;;;;;;;5089026;28;20395;-60
2023/08/18 08:02:33;;;;;;;8.60;6.75;;;;;;;;;;5088862;28;20113;-60
2023/08/18 08:04:59;;;;;;;14.88;6.63;;;;;;;;;;5092252;28;20040;-60
2023/08/18 08:07:26;;;;;;;10.68;6.75;;;;;;;;;;5092939;28;20043;-60
2023/08/18 08:09:56;;;;;;;10.70;7.25;;;;;;;;;;5089322;28;20484;-60
2023/08/18 08:12:22;;;;;;;14.15;7.43;;;;;;;;;;5087562;28;20048;-60
2023/08/18 08:14:49;;;;;;;15.50;8.38;;;;;;;;;;5086361;28;20108;-60
2023/08/18 08:17:15;;;;;;;12.75;6.72;;;;;;;;;;5089200;28;20079;-60
2023/08/18 08:19:41;;;;;;;13.35;7.55;;;;;;;;;;5091146;28;20036;-60
2023/08/18 08:22:10;;;;;;;12.63;6.90;;;;;;;;;;5092118;28;20036;-60
2023/08/18 08:24:36;;;;;;;10.80;7.70;;;;;;;;;;5087138;28;20048;-60
2023/08/18 08:27:02;;;;;;;13.18;6.95;;;;;;;;;;5087689;28;20078;-60
2023/08/18 08:29:29;;;;;;;9.60;6.65;;;;;;;;;;5089435;28;20138;-60
2023/08/18 08:31:55;;;;;;;13.45;6.90;;;;;;;;;;5090483;28;20404;-60
2023/08/18 08:34:22;;;;;;;12.50;7.80;;;;;;;;;;5091949;28;20088;-60
2023/08/18 08:36:49;;;;;;;14.73;7.30;;;;;;;;;;5091321;28;20031;-60
2023/08/18 08:39:15;;;;;;;12.40;7.38;;;;;;;;;;5091931;28;20046;-60
2023/08/18 08:41:41;;;;;;;12.02;7.90;;;;;;;;;;5092745;28;20032;-59
2023/08/18 08:44:07;;;;;;;12.15;7.63;;;;;;;;;;5091661;28;20066;-60
2023/08/18 08:46:34;;;;;;;10.13;7.60;;;;;;;;;;5091895;28;20063;-59
2023/08/18 08:49:04;;;;;;;15.82;7.85;;;;;;;;;;5091735;28;20044;-60
2023/08/18 08:51:32;;;;;;;9.05;7.07;;;;;;;;;;5088986;28;20055;-59
2023/08/18 08:54:00;;;;;;;16.55;8.45;;;;;;;;;;5089598;28;20036;-59
2023/08/18 08:56:30;;;;;;;11.10;7.63;;;;;;;;;;5088473;28;20418;-59
2023/08/18 08:58:56;;;;;;;12.98;7.85;;;;;;;;;;5091275;28;20071;-59
2023/08/18 09:01:23;;;;;;;14.48;7.68;;;;;;;;;;5092801;28;20399;-59
2023/08/18 09:03:50;;;;;;;10.82;6.53;;;;;;;;;;5091702;28;20047;-59
2023/08/18 09:06:16;;;;;;;10.25;7.50;;;;;;;;;;5087893;28;20383;-59
2023/08/18 09:08:42;;;;;;;12.82;7.22;;;;;;;;;;5090664;28;20074;-59
2023/08/18 09:11:09;;;;;;;14.38;7.00;;;;;;;;;;5086590;28;20040;-59
2023/08/18 09:13:36;;;;;;;10.65;6.70;;;;;;;;;;5089337;28;20388;-59
2023/08/18 09:16:08;;;;;;;13.35;7.03;;;;;;;;;;5086068;28;20056;-59
2023/08/18 09:18:35;;;;;;;9.65;6.32;;;;;;;;;;5092069;28;20047;-60
2023/08/18 09:21:06;;;;;;;12.70;6.90;;;;;;;;;;5084407;28;20037;-59
2023/08/18 09:23:32;;;;;;;10.15;6.30;;;;;;;;;;5088440;28;20070;-60
2023/08/18 09:25:58;;;;;;;11.48;6.72;;;;;;;;;;5089923;28;20064;-59
2023/08/18 09:28:25;;;;;;;10.45;6.75;;;;;;;;;;5090942;28;20050;-59
2023/08/18 09:30:52;;;;;;;8.55;6.28;;;;;;;;;;5088227;28;20119;-59
2023/08/18 09:33:18;;;;;;;11.60;6.85;;;;;;;;;;5087419;28;20524;-59
2023/08/18 09:35:44;;;;;;;10.65;7.03;;;;;;;;;;5090423;28;20486;-59
2023/08/18 09:38:14;;;;;;;10.40;6.85;;;;;;;;;;5090796;28;20043;-59
2023/08/18 09:40:40;;;;;;;13.10;7.47;;;;;;;;;;5090233;28;20044;-59
2023/08/18 09:43:06;;;;;;;11.02;7.43;;;;;;;;;;5089807;28;20043;-59
2023/08/18 09:45:34;;;;;;;12.82;7.80;;;;;;;;;;5095857;28;20036;-59
2023/08/18 09:48:02;;;;;;;12.82;7.53;;;;;;;;;;5110613;28;20530;-59
2023/08/18 09:50:33;;;;;;;14.52;8.32;;;;;;;;;;5110991;28;20051;-59
2023/08/18 09:53:01;;;;;;;14.82;7.55;;;;;;;;;;5104447;28;20043;-59
2023/08/18 09:55:31;;;;;;;15.70;8.75;;;;;;;;;;5093344;28;20786;-59
2023/08/18 09:58:09;;;;;;;15.10;8.15;;;;;;;;;;5090182;28;20036;-60
2023/08/18 10:00:38;;;;;;;14.43;8.48;;;;;;;;;;5108883;28;20118;-59
2023/08/18 10:03:08;;;;;;;12.70;7.57;;;;;;;;;;5091106;28;20671;-59
2023/08/18 10:05:34;;;;;;;13.73;8.38;;;;;;;;;;5108365;28;20047;-59
2023/08/18 10:08:02;;;;;;;17.15;8.48;;;;;;;;;;5100845;28;20399;-59
2023/08/18 10:10:28;;;;;;;13.20;8.13;;;;;;;;;;5110898;28;20104;-59
2023/08/18 10:12:55;;;;;;;14.98;7.85;;;;;;;;;;5096653;28;20400;-59
2023/08/18 10:15:22;;;;;;;13.88;8.43;;;;;;;;;;5103968;28;20126;-59
2023/08/18 10:17:48;;;;;;;15.48;7.75;;;;;;;;;;5100893;28;20044;-59
2023/08/18 10:20:14;;;;;;;17.40;7.78;;;;;;;;;;5097817;28;20062;-59
2023/08/18 10:22:44;;;;;;;15.85;8.35;;;;;;;;;;5096217;28;20122;-59
2023/08/18 10:25:10;;;;;;;16.48;8.75;;;;;;;;;;5101480;28;20043;-59
2023/08/18 10:27:38;;;;;;;18.50;9.30;;;;;;;;;;5100135;28;20048;-59
2023/08/18 10:30:07;;;;;;;18.88;9.60;;;;;;;;;;5110148;28;20041;-59
2023/08/18 10:32:33;;;;;;;14.38;9.05;;;;;;;;;;5099724;28;20047;-59
2023/08/18 10:35:21;;;;;;;17.52;9.52;;;;;;;;;;5093071;28;20040;-59
2023/08/18 10:37:50;;;;;;;16.17;8.23;;;;;;;;;;5096324;28;20123;-59
2023/08/18 10:40:27;;;;;;;21.00;8.93;;;;;;;;;;5099786;28;20147;-59
2023/08/18 10:42:57;;;;;;;16.35;8.88;;;;;;;;;;5099118;28;20147;-59
2023/08/18 10:45:25;;;;;;;20.88;9.13;;;;;;;;;;5114180;28;20077;-59
2023/08/18 10:47:51;;;;;;;19.20;10.15;;;;;;;;;;5114821;28;20092;-59
2023/08/18 10:50:19;;;;;;;14.73;7.53;;;;;;;;;;5112349;28;20479;-59
2023/08/18 10:52:45;;;;;;;13.15;8.02;;;;;;;;;;5102364;28;20083;-59
2023/08/18 10:55:12;;;;;;;17.02;7.97;;;;;;;;;;5090494;28;20135;-59
2023/08/18 10:57:38;;;;;;;14.98;8.35;;;;;;;;;;5113779;28;20500;-59
2023/08/18 11:00:11;;;;;;;13.93;8.65;;;;;;;;;;5114167;28;20099;-59
2023/08/18 11:02:40;;;;;;;18.52;8.52;;;;;;;;;;5113431;28;20079;-59
2023/08/18 11:05:07;;;;;;;13.38;7.35;;;;;;;;;;5102032;28;20126;-60
2023/08/18 11:07:34;;;;;;;13.63;7.55;;;;;;;;;;5092863;28;20044;-69
2023/08/18 11:10:00;;;;;;;13.65;7.68;;;;;;;;;;5091409;28;20449;-60
2023/08/18 11:12:26;;;;;;;15.88;8.02;;;;;;;;;;5090381;28;20056;-60
2023/08/18 11:14:52;;;;;;;14.73;8.68;;;;;;;;;;5092138;28;20063;-60
2023/08/18 11:17:18;;;;;;;14.30;7.95;;;;;;;;;;5109190;28;20441;-60
2023/08/18 11:19:45;;;;;;;14.43;7.85;;;;;;;;;;5114152;28;20079;-60
2023/08/18 11:22:11;;;;;;;10.52;7.82;;;;;;;;;;5098023;28;20551;-60
2023/08/18 11:24:37;;;;;;;16.90;8.88;;;;;;;;;;5098482;28;20119;-60
2023/08/18 11:27:04;;;;;;;13.35;7.53;;;;;;;;;;5113961;28;20042;-60
2023/08/18 11:29:30;;;;;;;16.30;8.02;;;;;;;;;;5113976;28;20059;-60
2023/08/18 11:31:56;;;;;;;14.77;7.68;;;;;;;;;;5106391;28;20119;-60
2023/08/18 11:34:22;;;;;;;13.25;7.65;;;;;;;;;;5102679;28;20094;-60
2023/08/18 11:36:58;;;;;;;11.88;7.15;;;;;;;;;;5090659;28;20047;-60
2023/08/18 11:39:24;;;;;;;12.25;7.47;;;;;;;;;;5112755;28;20465;-60
2023/08/18 11:41:52;;;;;;;14.15;7.00;;;;;;;;;;5102844;27;20032;-60
2023/08/18 11:44:20;;;;;;;11.13;7.15;;;;;;;;;;5083181;28;20040;-60
2023/08/18 11:46:46;;;;;;;11.30;7.13;;;;;;;;;;5098176;28;20051;-60
2023/08/18 11:49:16;;;;;;;12.00;7.03;;;;;;;;;;5108840;28;20055;-60
2023/08/18 11:51:58;;;;;;;11.25;6.43;;;;;;;;;;5092230;28;20058;-60
2023/08/18 11:54:25;;;;;;;12.38;6.63;;;;;;;;;;5101425;28;20137;-60
2023/08/18 11:56:52;;;;;;;11.18;6.57;;;;;;;;;;5108036;28;20043;-60
2023/08/18 11:59:19;;;;;;;13.55;6.65;;;;;;;;;;5103546;28;20413;-60
2023/08/18 12:01:45;;;;;;;11.90;7.00;;;;;;;;;;5099671;27;20177;-60
2023/08/18 12:04:11;;;;;;;13.60;7.25;;;;;;;;;;5083427;28;20051;-60
2023/08/18 12:06:39;;;;;;;11.90;7.68;;;;;;;;;;5103766;28;20124;-60
2023/08/18 12:09:05;;;;;;;10.32;7.35;;;;;;;;;;5099405;28;20486;-60
2023/08/18 12:11:34;;;;;;;14.77;7.53;;;;;;;;;;5111916;28;20031;-60
2023/08/18 12:14:03;;;;;;;10.60;7.53;;;;;;;;;;5108745;28;20061;-60
2023/08/18 12:16:29;;;;;;;15.38;7.63;;;;;;;;;;5103400;28;20040;-60
2023/08/18 12:18:56;;;;;;;11.18;7.70;;;;;;;;;;5101983;28;20047;-60
2023/08/18 12:21:22;;;;;;;13.07;7.65;;;;;;;;;;5103293;28;20053;-60
2023/08/18 12:23:48;;;;;;;10.93;7.22;;;;;;;;;;5094295;28;20079;-60
2023/08/18 12:26:16;;;;;;;12.60;7.57;;;;;;;;;;5109403;28;20036;-60
2023/08/18 12:28:42;;;;;;;13.05;7.40;;;;;;;;;;5112033;28;20408;-60
2023/08/18 12:31:08;;;;;;;9.95;7.30;;;;;;;;;;5110694;28;20084;-60
2023/08/18 12:33:35;;;;;;;10.27;6.57;;;;;;;;;;5105290;28;20046;-60
2023/08/18 12:36:02;;;;;;;12.80;6.80;;;;;;;;;;5105233;28;20476;-60
2023/08/18 12:38:29;;;;;;;9.55;7.10;;;;;;;;;;5112492;28;20048;-60
2023/08/18 12:40:55;;;;;;;12.95;7.70;;;;;;;;;;5109707;28;20062;-60
2023/08/18 12:43:21;;;;;;;10.70;7.65;;;;;;;;;;5102940;28;20039;-60
2023/08/18 12:45:47;;;;;;;9.95;7.15;;;;;;;;;;5112238;28;20506;-60
2023/08/18 12:48:13;;;;;;;9.38;6.55;;;;;;;;;;5099761;28;20131;-60
2023/08/18 12:50:40;;;;;;;9.50;7.55;;;;;;;;;;5111223;28;20506;-60
2023/08/18 12:53:07;;;;;;;10.52;7.13;;;;;;;;;;5092071;28;20078;-60
2023/08/18 12:55:33;;;;;;;9.02;6.97;;;;;;;;;;5111066;28;20040;-60
2023/08/18 12:57:59;;;;;;;10.73;7.40;;;;;;;;;;5098091;28;20069;-61
2023/08/18 13:00:25;;;;;;;9.55;7.63;;;;;;;;;;5096280;28;20459;-60
2023/08/18 13:02:51;;;;;;;8.52;6.22;;;;;;;;;;5101255;28;20463;-60
2023/08/18 13:05:18;;;;;;;7.55;5.78;;;;;;;;;;5106842;28;20050;-60
2023/08/18 13:07:44;;;;;;;10.75;7.18;;;;;;;;;;5111189;28;20071;-60
2023/08/18 13:10:10;;;;;;;8.90;7.72;;;;;;;;;;5103289;28;20118;-60
2023/08/18 13:12:36;;;;;;;8.60;6.60;;;;;;;;;;5100001;28;20122;-59
2023/08/18 13:15:03;;;;;;;8.70;6.05;;;;;;;;;;5103099;28;20046;-59
2023/08/18 13:17:29;;;;;;;7.20;5.80;;;;;;;;;;5110832;28;20039;-59
2023/08/18 13:19:55;;;;;;;7.72;6.28;;;;;;;;;;5104566;27;20104;-60
2023/08/18 13:22:21;;;;;;;7.95;6.43;;;;;;;;;;5109143;28;20036;-59
2023/08/18 13:24:47;;;;;;;9.82;6.20;;;;;;;;;;5110851;28;20043;-59
2023/08/18 13:27:14;;;;;;;9.20;6.78;;;;;;;;;;5108618;28;20035;-59
2023/08/18 13:29:40;;;;;;;8.50;6.43;;;;;;;;;;5102916;27;20452;-60
2023/08/18 13:32:07;;;;;;;8.73;6.18;;;;;;;;;;5109353;28;20135;-59
2023/08/18 13:34:33;;;;;;;12.80;6.55;;;;;;;;;;5109655;28;20043;-59
2023/08/18 13:36:59;;;;;;;10.73;5.90;;;;;;;;;;5111661;28;20040;-59
2023/08/18 13:39:25;;;;;;;10.05;6.68;;;;;;;;;;5093680;28;20044;-59
2023/08/18 13:41:51;;;;;;;8.02;5.78;;;;;;;;;;5111454;28;20036;-59
2023/08/18 13:44:18;;;;;;;7.95;6.55;;;;;;;;;;5090880;28;20074;-59
2023/08/18 13:46:44;;;;;;;6.35;5.53;;;;;;;;;;5092016;28;20173;-59
2023/08/18 13:49:11;;;;;;;7.60;5.65;;;;;;;;;;5111412;28;20074;-60
2023/08/18 13:51:37;;;;;;;9.38;5.82;;;;;;;;;;5111129;28;20062;-59
2023/08/18 13:54:04;;;;;;;6.90;5.90;;;;;;;;;;5091983;28;20044;-59
2023/08/18 13:56:30;;;;;;;8.55;5.68;;;;;;;;;;5103892;28;20071;-59
2023/08/18 13:58:56;;;;;;;9.32;6.00;;;;;;;;;;5110951;28;20510;-59
2023/08/18 14:01:22;;;;;;;7.57;5.80;;;;;;;;;;5104901;28;20036;-57
2023/08/18 14:03:48;;;;;;;12.07;6.65;;;;;;;;;;5090279;28;20054;-66
2023/08/18 14:06:15;;;;;;;7.00;5.30;;;;;;;;;;5098580;28;20040;-57
2023/08/18 14:08:41;;;;;;;7.40;5.75;;;;;;;;;;5102653;28;20501;-57
2023/08/18 14:11:08;;;;;;;10.40;6.90;;;;;;;;;;5109668;28;20040;-57
2023/08/18 14:13:36;;;;;;;6.80;5.50;;;;;;;;;;5097613;28;20040;-57
2023/08/18 14:16:02;;;;;;;8.23;6.28;;;;;;;;;;5103043;28;20111;-57
2023/08/18 14:18:29;;;;;;;7.45;5.82;;;;;;;;;;5094992;28;20052;-57
2023/08/18 14:20:55;;;;;;;8.32;6.38;;;;;;;;;;5106373;28;20089;-58
2023/08/18 14:23:21;;;;;;;7.75;6.10;;;;;;;;;;5115087;28;20518;-58
2023/08/18 14:25:47;;;;;;;8.48;6.82;;;;;;;;;;5109852;28;20036;-58
2023/08/18 14:28:14;;;;;;;9.13;6.78;;;;;;;;;;5101924;28;20059;-58
2023/08/18 14:30:40;;;;;;;8.18;6.25;;;;;;;;;;5109167;28;20071;-58
2023/08/18 14:33:06;;;;;;;10.98;6.05;;;;;;;;;;5086674;28;20047;-58